sensor_id;sensor_type;location;lat;lon;timestamp;P1;durP1;ratioP1;P2;durP2;ratioP2
50815;SDS011;39717;47.324;8.788;2023-04-06T00:00:37;10.97;;;7.17;;
50815;SDS011;39717;47.324;8.788;2023-04-06T00:03:03;9.10;;;7.07;;
50815;SDS011;39717;47.324;8.788;2023-04-06T00:05:29;9.07;;;6.40;;
50815;SDS011;39717;47.324;8.788;2023-04-06T00:07:57;7.93;;;6.47;;
50815;SDS011;39717;47.324;8.788;2023-04-06T00:10:23;9.73;;;7.07;;
50815;SDS011;39717;47.324;8.788;2023-04-06T00:12:49;10.43;;;7.13;;
50815;SDS011;39717;47.324;8.788;2023-04-06T00:15:16;8.43;;;7.13;;
50815;SDS011;39717;47.324;8.788;2023-04-06T00:17:43;8.83;;;6.73;;
50815;SDS011;39717;47.324;8.788;2023-04-06T00:20:09;10.43;;;7.03;;
50815;SDS011;39717;47.324;8.788;2023-04-06T00:22:36;9.80;;;6.77;;
50815;SDS011;39717;47.324;8.788;2023-04-06T00:25:02;13.50;;;7.77;;
50815;SDS011;39717;47.324;8.788;2023-04-06T00:27:30;12.83;;;7.80;;
50815;SDS011;39717;47.324;8.788;2023-04-06T00:29:57;13.70;;;7.70;;
50815;SDS011;39717;47.324;8.788;2023-04-06T00:32:23;11.67;;;7.20;;
50815;SDS011;39717;47.324;8.788;2023-04-06T00:34:50;11.30;;;8.03;;
50815;SDS011;39717;47.324;8.788;2023-04-06T00:37:17;11.93;;;7.93;;
50815;SDS011;39717;47.324;8.788;2023-04-06T00:39:44;10.63;;;7.37;;
50815;SDS011;39717;47.324;8.788;2023-04-06T00:42:11;9.37;;;7.33;;
50815;SDS011;39717;47.324;8.788;2023-04-06T00:44:41;10.40;;;7.17;;
50815;SDS011;39717;47.324;8.788;2023-04-06T00:47:07;9.70;;;7.20;;
50815;SDS011;39717;47.324;8.788;2023-04-06T00:49:33;10.13;;;7.47;;
50815;SDS011;39717;47.324;8.788;2023-04-06T00:52:00;10.43;;;7.90;;
50815;SDS011;39717;47.324;8.788;2023-04-06T00:54:28;10.57;;;8.27;;
50815;SDS011;39717;47.324;8.788;2023-04-06T00:56:55;10.57;;;7.77;;
50815;SDS011;39717;47.324;8.788;2023-04-06T00:59:23;14.47;;;7.47;;
50815;SDS011;39717;47.324;8.788;2023-04-06T01:01:49;11.57;;;7.77;;
50815;SDS011;39717;47.324;8.788;2023-04-06T01:04:15;10.50;;;7.53;;
50815;SDS011;39717;47.324;8.788;2023-04-06T01:06:41;12.20;;;7.63;;
50815;SDS011;39717;47.324;8.788;2023-04-06T01:09:07;9.83;;;7.07;;
50815;SDS011;39717;47.324;8.788;2023-04-06T01:11:35;11.07;;;7.87;;
50815;SDS011;39717;47.324;8.788;2023-04-06T01:14:01;10.13;;;6.93;;
50815;SDS011;39717;47.324;8.788;2023-04-06T01:16:29;10.87;;;7.20;;
50815;SDS011;39717;47.324;8.788;2023-04-06T01:18:57;10.57;;;7.93;;
50815;SDS011;39717;47.324;8.788;2023-04-06T01:21:23;10.67;;;7.80;;
50815;SDS011;39717;47.324;8.788;2023-04-06T01:23:50;12.17;;;6.97;;
50815;SDS011;39717;47.324;8.788;2023-04-06T01:26:17;10.30;;;7.43;;
50815;SDS011;39717;47.324;8.788;2023-04-06T01:28:43;10.43;;;7.93;;
50815;SDS011;39717;47.324;8.788;2023-04-06T01:31:10;11.57;;;7.47;;
50815;SDS011;39717;47.324;8.788;2023-04-06T01:33:36;11.53;;;7.97;;
50815;SDS011;39717;47.324;8.788;2023-04-06T01:36:03;11.10;;;8.07;;
50815;SDS011;39717;47.324;8.788;2023-04-06T01:38:30;11.03;;;8.13;;
50815;SDS011;39717;47.324;8.788;2023-04-06T01:40:56;12.13;;;8.03;;
50815;SDS011;39717;47.324;8.788;2023-04-06T01:43:22;12.10;;;7.93;;
50815;SDS011;39717;47.324;8.788;2023-04-06T01:45:48;11.47;;;7.53;;
50815;SDS011;39717;47.324;8.788;2023-04-06T01:48:15;10.97;;;7.27;;
50815;SDS011;39717;47.324;8.788;2023-04-06T01:50:41;11.70;;;8.03;;
50815;SDS011;39717;47.324;8.788;2023-04-06T01:53:07;10.07;;;7.13;;
50815;SDS011;39717;47.324;8.788;2023-04-06T01:55:33;10.43;;;7.73;;
50815;SDS011;39717;47.324;8.788;2023-04-06T01:58:00;10.13;;;6.73;;
50815;SDS011;39717;47.324;8.788;2023-04-06T02:00:26;10.47;;;7.30;;
50815;SDS011;39717;47.324;8.788;2023-04-06T02:02:52;12.13;;;7.67;;
50815;SDS011;39717;47.324;8.788;2023-04-06T02:05:19;11.23;;;7.60;;
50815;SDS011;39717;47.324;8.788;2023-04-06T02:07:45;13.43;;;8.47;;
50815;SDS011;39717;47.324;8.788;2023-04-06T02:10:12;10.10;;;7.77;;
50815;SDS011;39717;47.324;8.788;2023-04-06T02:12:39;10.70;;;7.73;;
50815;SDS011;39717;47.324;8.788;2023-04-06T02:15:05;12.43;;;7.47;;
50815;SDS011;39717;47.324;8.788;2023-04-06T02:17:31;12.30;;;7.80;;
50815;SDS011;39717;47.324;8.788;2023-04-06T02:19:57;10.87;;;7.37;;
50815;SDS011;39717;47.324;8.788;2023-04-06T02:22:24;11.73;;;7.20;;
50815;SDS011;39717;47.324;8.788;2023-04-06T02:24:50;10.53;;;8.40;;
50815;SDS011;39717;47.324;8.788;2023-04-06T02:27:16;11.67;;;8.10;;
50815;SDS011;39717;47.324;8.788;2023-04-06T02:29:42;12.87;;;8.00;;
50815;SDS011;39717;47.324;8.788;2023-04-06T02:32:08;11.70;;;7.97;;
50815;SDS011;39717;47.324;8.788;2023-04-06T02:34:35;10.97;;;7.63;;
50815;SDS011;39717;47.324;8.788;2023-04-06T02:37:01;11.83;;;8.07;;
50815;SDS011;39717;47.324;8.788;2023-04-06T02:39:28;14.00;;;7.63;;
50815;SDS011;39717;47.324;8.788;2023-04-06T02:41:54;13.83;;;8.87;;
50815;SDS011;39717;47.324;8.788;2023-04-06T02:44:21;13.63;;;8.33;;
50815;SDS011;39717;47.324;8.788;2023-04-06T02:46:47;12.27;;;8.23;;
50815;SDS011;39717;47.324;8.788;2023-04-06T02:49:13;15.40;;;9.27;;
50815;SDS011;39717;47.324;8.788;2023-04-06T02:51:39;10.47;;;7.97;;
50815;SDS011;39717;47.324;8.788;2023-04-06T02:54:05;11.77;;;8.10;;
50815;SDS011;39717;47.324;8.788;2023-04-06T02:56:31;12.23;;;8.43;;
50815;SDS011;39717;47.324;8.788;2023-04-06T02:58:57;11.43;;;8.43;;
50815;SDS011;39717;47.324;8.788;2023-04-06T03:01:24;12.00;;;8.57;;
50815;SDS011;39717;47.324;8.788;2023-04-06T03:03:50;10.93;;;7.57;;
50815;SDS011;39717;47.324;8.788;2023-04-06T03:06:16;11.47;;;8.23;;
50815;SDS011;39717;47.324;8.788;2023-04-06T03:08:43;11.70;;;8.10;;
50815;SDS011;39717;47.324;8.788;2023-04-06T03:11:10;13.57;;;8.43;;
50815;SDS011;39717;47.324;8.788;2023-04-06T03:13:37;13.30;;;7.93;;
50815;SDS011;39717;47.324;8.788;2023-04-06T03:16:06;11.83;;;8.10;;
50815;SDS011;39717;47.324;8.788;2023-04-06T03:18:32;11.87;;;7.77;;
50815;SDS011;39717;47.324;8.788;2023-04-06T03:20:58;11.63;;;8.40;;
50815;SDS011;39717;47.324;8.788;2023-04-06T03:23:26;15.07;;;8.23;;
50815;SDS011;39717;47.324;8.788;2023-04-06T03:25:52;13.17;;;8.07;;
50815;SDS011;39717;47.324;8.788;2023-04-06T03:28:19;14.13;;;8.73;;
50815;SDS011;39717;47.324;8.788;2023-04-06T03:30:45;12.87;;;8.23;;
50815;SDS011;39717;47.324;8.788;2023-04-06T03:33:11;15.80;;;8.70;;
50815;SDS011;39717;47.324;8.788;2023-04-06T03:35:37;14.83;;;8.80;;
50815;SDS011;39717;47.324;8.788;2023-04-06T03:38:04;12.67;;;8.80;;
50815;SDS011;39717;47.324;8.788;2023-04-06T03:40:31;13.23;;;8.67;;
50815;SDS011;39717;47.324;8.788;2023-04-06T03:42:57;12.20;;;8.23;;
50815;SDS011;39717;47.324;8.788;2023-04-06T03:45:23;16.40;;;9.20;;
50815;SDS011;39717;47.324;8.788;2023-04-06T03:47:49;11.13;;;8.57;;
50815;SDS011;39717;47.324;8.788;2023-04-06T03:50:15;12.10;;;8.67;;
50815;SDS011;39717;47.324;8.788;2023-04-06T03:52:42;14.93;;;9.00;;
50815;SDS011;39717;47.324;8.788;2023-04-06T03:55:08;15.43;;;8.60;;
50815;SDS011;39717;47.324;8.788;2023-04-06T03:57:34;12.87;;;8.37;;
50815;SDS011;39717;47.324;8.788;2023-04-06T04:00:00;15.10;;;8.10;;
50815;SDS011;39717;47.324;8.788;2023-04-06T04:02:27;10.60;;;8.00;;
50815;SDS011;39717;47.324;8.788;2023-04-06T04:04:53;14.03;;;9.33;;
50815;SDS011;39717;47.324;8.788;2023-04-06T04:07:19;13.77;;;8.67;;
50815;SDS011;39717;47.324;8.788;2023-04-06T04:09:46;11.57;;;8.43;;
50815;SDS011;39717;47.324;8.788;2023-04-06T04:12:12;13.17;;;8.60;;
50815;SDS011;39717;47.324;8.788;2023-04-06T04:14:39;17.97;;;8.40;;
50815;SDS011;39717;47.324;8.788;2023-04-06T04:17:05;12.53;;;8.43;;
50815;SDS011;39717;47.324;8.788;2023-04-06T04:19:32;13.77;;;9.33;;
50815;SDS011;39717;47.324;8.788;2023-04-06T04:21:59;17.77;;;9.60;;
50815;SDS011;39717;47.324;8.788;2023-04-06T04:24:27;13.70;;;8.97;;
50815;SDS011;39717;47.324;8.788;2023-04-06T04:26:53;13.70;;;9.07;;
50815;SDS011;39717;47.324;8.788;2023-04-06T04:29:22;14.20;;;8.87;;
50815;SDS011;39717;47.324;8.788;2023-04-06T04:31:50;11.33;;;8.40;;
50815;SDS011;39717;47.324;8.788;2023-04-06T04:34:17;13.83;;;9.33;;
50815;SDS011;39717;47.324;8.788;2023-04-06T04:36:50;21.00;;;9.77;;
50815;SDS011;39717;47.324;8.788;2023-04-06T04:39:17;14.50;;;9.17;;
50815;SDS011;39717;47.324;8.788;2023-04-06T04:41:43;13.47;;;9.10;;
50815;SDS011;39717;47.324;8.788;2023-04-06T04:44:09;11.80;;;8.50;;
50815;SDS011;39717;47.324;8.788;2023-04-06T04:46:36;12.33;;;8.63;;
50815;SDS011;39717;47.324;8.788;2023-04-06T04:49:03;12.23;;;8.97;;
50815;SDS011;39717;47.324;8.788;2023-04-06T04:51:29;12.20;;;8.77;;
50815;SDS011;39717;47.324;8.788;2023-04-06T04:53:57;14.57;;;9.50;;
50815;SDS011;39717;47.324;8.788;2023-04-06T04:56:23;13.77;;;9.43;;
50815;SDS011;39717;47.324;8.788;2023-04-06T04:58:50;13.67;;;9.43;;
50815;SDS011;39717;47.324;8.788;2023-04-06T05:01:16;14.87;;;9.27;;
50815;SDS011;39717;47.324;8.788;2023-04-06T05:03:42;18.23;;;9.33;;
50815;SDS011;39717;47.324;8.788;2023-04-06T05:06:09;14.37;;;9.47;;
50815;SDS011;39717;47.324;8.788;2023-04-06T05:08:35;13.03;;;9.33;;
50815;SDS011;39717;47.324;8.788;2023-04-06T05:11:02;15.37;;;9.67;;
50815;SDS011;39717;47.324;8.788;2023-04-06T05:13:29;17.63;;;11.37;;
50815;SDS011;39717;47.324;8.788;2023-04-06T05:15:57;21.20;;;12.37;;
50815;SDS011;39717;47.324;8.788;2023-04-06T05:18:23;20.40;;;12.63;;
50815;SDS011;39717;47.324;8.788;2023-04-06T05:20:49;26.63;;;14.40;;
50815;SDS011;39717;47.324;8.788;2023-04-06T05:23:16;18.13;;;11.70;;
50815;SDS011;39717;47.324;8.788;2023-04-06T05:25:43;15.93;;;11.40;;
50815;SDS011;39717;47.324;8.788;2023-04-06T05:28:09;21.20;;;12.13;;
50815;SDS011;39717;47.324;8.788;2023-04-06T05:30:35;21.30;;;12.40;;
50815;SDS011;39717;47.324;8.788;2023-04-06T05:33:02;18.17;;;11.40;;
50815;SDS011;39717;47.324;8.788;2023-04-06T05:35:28;19.67;;;11.80;;
50815;SDS011;39717;47.324;8.788;2023-04-06T05:37:54;22.43;;;11.83;;
50815;SDS011;39717;47.324;8.788;2023-04-06T05:40:21;19.40;;;10.87;;
50815;SDS011;39717;47.324;8.788;2023-04-06T05:42:47;17.93;;;11.20;;
50815;SDS011;39717;47.324;8.788;2023-04-06T05:45:14;16.70;;;11.33;;
50815;SDS011;39717;47.324;8.788;2023-04-06T05:47:44;17.33;;;10.37;;
50815;SDS011;39717;47.324;8.788;2023-04-06T05:50:12;15.90;;;10.40;;
50815;SDS011;39717;47.324;8.788;2023-04-06T05:52:38;14.33;;;9.27;;
50815;SDS011;39717;47.324;8.788;2023-04-06T05:55:08;14.87;;;10.37;;
50815;SDS011;39717;47.324;8.788;2023-04-06T05:57:35;14.77;;;10.10;;
50815;SDS011;39717;47.324;8.788;2023-04-06T06:00:01;16.90;;;10.53;;
50815;SDS011;39717;47.324;8.788;2023-04-06T06:02:30;19.53;;;11.50;;
50815;SDS011;39717;47.324;8.788;2023-04-06T06:04:56;17.73;;;10.13;;
50815;SDS011;39717;47.324;8.788;2023-04-06T06:07:23;15.27;;;10.40;;
50815;SDS011;39717;47.324;8.788;2023-04-06T06:09:49;18.07;;;11.13;;
50815;SDS011;39717;47.324;8.788;2023-04-06T06:12:15;16.63;;;9.67;;
50815;SDS011;39717;47.324;8.788;2023-04-06T06:14:41;16.37;;;9.90;;
50815;SDS011;39717;47.324;8.788;2023-04-06T06:17:09;15.23;;;9.77;;
50815;SDS011;39717;47.324;8.788;2023-04-06T06:19:35;18.57;;;10.03;;
50815;SDS011;39717;47.324;8.788;2023-04-06T06:22:01;13.80;;;9.97;;
50815;SDS011;39717;47.324;8.788;2023-04-06T06:24:29;17.17;;;10.40;;
50815;SDS011;39717;47.324;8.788;2023-04-06T06:26:56;17.87;;;12.00;;
50815;SDS011;39717;47.324;8.788;2023-04-06T06:29:22;16.33;;;11.70;;
50815;SDS011;39717;47.324;8.788;2023-04-06T06:31:49;14.37;;;11.00;;
50815;SDS011;39717;47.324;8.788;2023-04-06T06:34:15;16.53;;;11.20;;
50815;SDS011;39717;47.324;8.788;2023-04-06T06:36:41;16.37;;;10.20;;
50815;SDS011;39717;47.324;8.788;2023-04-06T06:39:08;15.53;;;9.23;;
50815;SDS011;39717;47.324;8.788;2023-04-06T06:41:34;12.53;;;8.20;;
50815;SDS011;39717;47.324;8.788;2023-04-06T06:44:00;12.83;;;8.90;;
50815;SDS011;39717;47.324;8.788;2023-04-06T06:46:28;11.80;;;7.80;;
50815;SDS011;39717;47.324;8.788;2023-04-06T06:48:54;11.63;;;7.83;;
50815;SDS011;39717;47.324;8.788;2023-04-06T06:51:21;14.57;;;8.27;;
50815;SDS011;39717;47.324;8.788;2023-04-06T06:53:47;7.00;;;5.60;;
50815;SDS011;39717;47.324;8.788;2023-04-06T06:56:13;9.90;;;6.23;;
50815;SDS011;39717;47.324;8.788;2023-04-06T06:58:40;10.47;;;6.33;;
50815;SDS011;39717;47.324;8.788;2023-04-06T07:01:06;7.10;;;5.47;;
50815;SDS011;39717;47.324;8.788;2023-04-06T07:03:32;7.37;;;5.20;;
50815;SDS011;39717;47.324;8.788;2023-04-06T07:05:58;7.30;;;5.30;;
50815;SDS011;39717;47.324;8.788;2023-04-06T07:08:25;7.53;;;5.53;;
50815;SDS011;39717;47.324;8.788;2023-04-06T07:11:03;8.47;;;5.83;;
50815;SDS011;39717;47.324;8.788;2023-04-06T07:13:32;6.37;;;5.47;;
50815;SDS011;39717;47.324;8.788;2023-04-06T07:15:58;10.00;;;5.77;;
50815;SDS011;39717;47.324;8.788;2023-04-06T07:18:24;8.17;;;6.23;;
50815;SDS011;39717;47.324;8.788;2023-04-06T07:20:51;6.60;;;5.07;;
50815;SDS011;39717;47.324;8.788;2023-04-06T07:23:17;7.97;;;5.63;;
50815;SDS011;39717;47.324;8.788;2023-04-06T07:25:43;7.03;;;5.00;;
50815;SDS011;39717;47.324;8.788;2023-04-06T07:28:10;5.93;;;5.30;;
50815;SDS011;39717;47.324;8.788;2023-04-06T07:30:37;8.90;;;5.37;;
50815;SDS011;39717;47.324;8.788;2023-04-06T07:33:03;8.67;;;5.30;;
50815;SDS011;39717;47.324;8.788;2023-04-06T07:35:30;10.50;;;6.13;;
50815;SDS011;39717;47.324;8.788;2023-04-06T07:37:57;8.97;;;5.80;;
50815;SDS011;39717;47.324;8.788;2023-04-06T07:40:23;8.07;;;5.87;;
50815;SDS011;39717;47.324;8.788;2023-04-06T07:42:51;7.07;;;4.90;;
50815;SDS011;39717;47.324;8.788;2023-04-06T07:45:17;6.73;;;5.57;;
50815;SDS011;39717;47.324;8.788;2023-04-06T07:47:43;7.53;;;5.33;;
50815;SDS011;39717;47.324;8.788;2023-04-06T07:50:10;7.33;;;5.27;;
50815;SDS011;39717;47.324;8.788;2023-04-06T07:52:37;9.30;;;5.60;;
50815;SDS011;39717;47.324;8.788;2023-04-06T07:55:04;6.87;;;5.43;;
50815;SDS011;39717;47.324;8.788;2023-04-06T07:57:30;7.33;;;4.97;;
50815;SDS011;39717;47.324;8.788;2023-04-06T07:59:57;7.73;;;5.20;;
50815;SDS011;39717;47.324;8.788;2023-04-06T08:02:23;8.93;;;5.37;;
50815;SDS011;39717;47.324;8.788;2023-04-06T08:04:49;6.20;;;5.33;;
50815;SDS011;39717;47.324;8.788;2023-04-06T08:07:15;8.60;;;6.17;;
50815;SDS011;39717;47.324;8.788;2023-04-06T08:09:42;7.70;;;4.97;;
50815;SDS011;39717;47.324;8.788;2023-04-06T08:12:08;8.20;;;6.13;;
50815;SDS011;39717;47.324;8.788;2023-04-06T08:14:34;8.07;;;5.50;;
50815;SDS011;39717;47.324;8.788;2023-04-06T08:17:00;10.03;;;6.47;;
50815;SDS011;39717;47.324;8.788;2023-04-06T08:19:27;6.33;;;5.37;;
50815;SDS011;39717;47.324;8.788;2023-04-06T08:21:53;7.80;;;5.60;;
50815;SDS011;39717;47.324;8.788;2023-04-06T08:24:19;8.57;;;5.40;;
50815;SDS011;39717;47.324;8.788;2023-04-06T08:26:45;7.33;;;5.80;;
50815;SDS011;39717;47.324;8.788;2023-04-06T08:29:12;7.77;;;5.43;;
50815;SDS011;39717;47.324;8.788;2023-04-06T08:31:38;9.53;;;6.00;;
50815;SDS011;39717;47.324;8.788;2023-04-06T08:34:04;12.83;;;6.17;;
50815;SDS011;39717;47.324;8.788;2023-04-06T08:36:30;6.97;;;5.80;;
50815;SDS011;39717;47.324;8.788;2023-04-06T08:38:59;7.00;;;5.03;;
50815;SDS011;39717;47.324;8.788;2023-04-06T08:41:27;8.77;;;5.60;;
50815;SDS011;39717;47.324;8.788;2023-04-06T08:46:20;7.50;;;5.80;;
50815;SDS011;39717;47.324;8.788;2023-04-06T08:48:48;8.03;;;5.87;;
50815;SDS011;39717;47.324;8.788;2023-04-06T08:51:17;7.27;;;5.40;;
50815;SDS011;39717;47.324;8.788;2023-04-06T08:53:45;8.97;;;6.17;;
50815;SDS011;39717;47.324;8.788;2023-04-06T08:56:11;10.90;;;5.90;;
50815;SDS011;39717;47.324;8.788;2023-04-06T08:58:39;7.33;;;5.70;;
50815;SDS011;39717;47.324;8.788;2023-04-06T09:01:06;7.53;;;5.50;;
50815;SDS011;39717;47.324;8.788;2023-04-06T09:03:37;8.10;;;5.50;;
50815;SDS011;39717;47.324;8.788;2023-04-06T09:06:08;7.60;;;6.03;;
50815;SDS011;39717;47.324;8.788;2023-04-06T09:08:34;9.00;;;6.17;;
50815;SDS011;39717;47.324;8.788;2023-04-06T09:11:02;6.60;;;5.17;;
50815;SDS011;39717;47.324;8.788;2023-04-06T09:13:30;8.50;;;5.83;;
50815;SDS011;39717;47.324;8.788;2023-04-06T09:16:03;7.50;;;5.93;;
50815;SDS011;39717;47.324;8.788;2023-04-06T09:18:31;8.60;;;5.60;;
50815;SDS011;39717;47.324;8.788;2023-04-06T09:21:02;9.07;;;5.83;;
50815;SDS011;39717;47.324;8.788;2023-04-06T09:23:28;10.50;;;7.00;;
50815;SDS011;39717;47.324;8.788;2023-04-06T09:26:08;9.47;;;7.13;;
50815;SDS011;39717;47.324;8.788;2023-04-06T09:28:41;7.73;;;6.57;;
50815;SDS011;39717;47.324;8.788;2023-04-06T09:31:07;8.30;;;6.30;;
50815;SDS011;39717;47.324;8.788;2023-04-06T09:33:40;8.80;;;6.60;;
50815;SDS011;39717;47.324;8.788;2023-04-06T09:36:06;7.63;;;6.23;;
50815;SDS011;39717;47.324;8.788;2023-04-06T09:38:36;10.07;;;6.67;;
50815;SDS011;39717;47.324;8.788;2023-04-06T09:41:02;10.53;;;6.63;;
50815;SDS011;39717;47.324;8.788;2023-04-06T09:43:28;11.73;;;7.03;;
50815;SDS011;39717;47.324;8.788;2023-04-06T09:45:55;10.90;;;7.17;;
50815;SDS011;39717;47.324;8.788;2023-04-06T09:48:24;9.80;;;6.80;;
50815;SDS011;39717;47.324;8.788;2023-04-06T09:50:52;11.40;;;8.43;;
50815;SDS011;39717;47.324;8.788;2023-04-06T09:53:19;9.20;;;6.03;;
50815;SDS011;39717;47.324;8.788;2023-04-06T09:55:46;8.30;;;4.97;;
50815;SDS011;39717;47.324;8.788;2023-04-06T09:58:13;10.37;;;6.73;;
50815;SDS011;39717;47.324;8.788;2023-04-06T10:00:47;10.00;;;7.07;;
50815;SDS011;39717;47.324;8.788;2023-04-06T10:08:13;9.00;;;6.20;;
50815;SDS011;39717;47.324;8.788;2023-04-06T10:10:40;9.37;;;7.10;;
50815;SDS011;39717;47.324;8.788;2023-04-06T10:13:07;8.60;;;6.60;;
50815;SDS011;39717;47.324;8.788;2023-04-06T10:15:34;9.93;;;6.57;;
50815;SDS011;39717;47.324;8.788;2023-04-06T10:18:01;8.97;;;5.90;;
50815;SDS011;39717;47.324;8.788;2023-04-06T10:20:35;7.33;;;6.37;;
50815;SDS011;39717;47.324;8.788;2023-04-06T10:23:06;8.27;;;6.20;;
50815;SDS011;39717;47.324;8.788;2023-04-06T10:25:34;8.03;;;6.43;;
50815;SDS011;39717;47.324;8.788;2023-04-06T10:28:04;7.73;;;6.20;;
50815;SDS011;39717;47.324;8.788;2023-04-06T10:30:31;7.20;;;5.80;;
50815;SDS011;39717;47.324;8.788;2023-04-06T10:32:58;10.40;;;6.57;;
50815;SDS011;39717;47.324;8.788;2023-04-06T10:35:24;10.10;;;7.40;;
50815;SDS011;39717;47.324;8.788;2023-04-06T10:38:03;7.13;;;6.33;;
50815;SDS011;39717;47.324;8.788;2023-04-06T10:40:30;9.70;;;6.90;;
50815;SDS011;39717;47.324;8.788;2023-04-06T10:43:06;8.87;;;6.80;;
50815;SDS011;39717;47.324;8.788;2023-04-06T10:45:33;8.10;;;6.30;;
50815;SDS011;39717;47.324;8.788;2023-04-06T10:47:59;10.97;;;7.13;;
50815;SDS011;39717;47.324;8.788;2023-04-06T10:50:25;8.10;;;6.70;;
50815;SDS011;39717;47.324;8.788;2023-04-06T10:53:02;7.93;;;6.40;;
50815;SDS011;39717;47.324;8.788;2023-04-06T10:55:29;7.63;;;6.37;;
50815;SDS011;39717;47.324;8.788;2023-04-06T10:57:56;11.83;;;6.47;;
50815;SDS011;39717;47.324;8.788;2023-04-06T11:00:23;9.30;;;6.03;;
50815;SDS011;39717;47.324;8.788;2023-04-06T11:02:50;8.60;;;6.63;;
50815;SDS011;39717;47.324;8.788;2023-04-06T11:05:17;9.07;;;7.10;;
50815;SDS011;39717;47.324;8.788;2023-04-06T11:07:43;7.07;;;5.47;;
50815;SDS011;39717;47.324;8.788;2023-04-06T11:10:10;7.37;;;6.00;;
50815;SDS011;39717;47.324;8.788;2023-04-06T11:12:36;7.67;;;5.47;;
50815;SDS011;39717;47.324;8.788;2023-04-06T11:15:03;5.57;;;5.00;;
50815;SDS011;39717;47.324;8.788;2023-04-06T11:17:31;7.10;;;5.70;;
50815;SDS011;39717;47.324;8.788;2023-04-06T11:19:58;7.57;;;5.57;;
50815;SDS011;39717;47.324;8.788;2023-04-06T11:22:24;8.03;;;5.63;;
50815;SDS011;39717;47.324;8.788;2023-04-06T11:24:51;6.17;;;5.03;;
50815;SDS011;39717;47.324;8.788;2023-04-06T11:27:18;6.87;;;5.70;;
50815;SDS011;39717;47.324;8.788;2023-04-06T11:29:46;6.93;;;5.83;;
50815;SDS011;39717;47.324;8.788;2023-04-06T11:32:21;8.50;;;5.50;;
50815;SDS011;39717;47.324;8.788;2023-04-06T11:34:49;7.47;;;4.97;;
50815;SDS011;39717;47.324;8.788;2023-04-06T11:37:15;7.83;;;5.30;;
50815;SDS011;39717;47.324;8.788;2023-04-06T11:39:51;6.33;;;5.50;;
50815;SDS011;39717;47.324;8.788;2023-04-06T11:42:27;6.83;;;5.70;;
50815;SDS011;39717;47.324;8.788;2023-04-06T11:44:57;8.47;;;6.00;;
50815;SDS011;39717;47.324;8.788;2023-04-06T11:47:28;6.23;;;5.40;;
50815;SDS011;39717;47.324;8.788;2023-04-06T11:49:55;6.30;;;5.10;;
50815;SDS011;39717;47.324;8.788;2023-04-06T11:52:25;6.60;;;4.97;;
50815;SDS011;39717;47.324;8.788;2023-04-06T11:54:53;5.83;;;4.53;;
50815;SDS011;39717;47.324;8.788;2023-04-06T11:57:22;8.00;;;4.97;;
50815;SDS011;39717;47.324;8.788;2023-04-06T11:59:50;6.70;;;5.07;;
50815;SDS011;39717;47.324;8.788;2023-04-06T12:02:17;7.93;;;5.17;;
50815;SDS011;39717;47.324;8.788;2023-04-06T12:04:43;6.00;;;5.13;;
50815;SDS011;39717;47.324;8.788;2023-04-06T12:07:10;6.97;;;4.93;;
50815;SDS011;39717;47.324;8.788;2023-04-06T12:09:36;6.23;;;4.73;;
50815;SDS011;39717;47.324;8.788;2023-04-06T12:12:02;5.77;;;4.53;;
50815;SDS011;39717;47.324;8.788;2023-04-06T12:14:29;6.73;;;4.97;;
50815;SDS011;39717;47.324;8.788;2023-04-06T12:16:58;7.00;;;5.23;;
50815;SDS011;39717;47.324;8.788;2023-04-06T12:19:24;8.03;;;4.50;;
50815;SDS011;39717;47.324;8.788;2023-04-06T12:21:54;6.97;;;4.57;;
50815;SDS011;39717;47.324;8.788;2023-04-06T12:24:20;6.87;;;4.60;;
50815;SDS011;39717;47.324;8.788;2023-04-06T12:26:47;6.90;;;5.30;;
50815;SDS011;39717;47.324;8.788;2023-04-06T12:29:13;4.70;;;3.70;;
50815;SDS011;39717;47.324;8.788;2023-04-06T12:31:39;7.17;;;5.00;;
50815;SDS011;39717;47.324;8.788;2023-04-06T12:34:08;6.57;;;5.83;;
50815;SDS011;39717;47.324;8.788;2023-04-06T12:36:36;6.37;;;5.57;;
50815;SDS011;39717;47.324;8.788;2023-04-06T12:39:03;9.20;;;5.50;;
50815;SDS011;39717;47.324;8.788;2023-04-06T12:41:29;6.60;;;5.50;;
50815;SDS011;39717;47.324;8.788;2023-04-06T12:43:56;6.93;;;5.20;;
50815;SDS011;39717;47.324;8.788;2023-04-06T12:46:23;5.77;;;5.03;;
50815;SDS011;39717;47.324;8.788;2023-04-06T12:48:50;9.30;;;5.00;;
50815;SDS011;39717;47.324;8.788;2023-04-06T12:51:20;8.07;;;5.30;;
50815;SDS011;39717;47.324;8.788;2023-04-06T12:53:46;6.27;;;5.27;;
50815;SDS011;39717;47.324;8.788;2023-04-06T12:56:14;7.23;;;5.20;;
50815;SDS011;39717;47.324;8.788;2023-04-06T12:58:40;6.07;;;4.97;;
50815;SDS011;39717;47.324;8.788;2023-04-06T13:01:07;5.60;;;4.30;;
50815;SDS011;39717;47.324;8.788;2023-04-06T13:03:33;7.07;;;5.03;;
50815;SDS011;39717;47.324;8.788;2023-04-06T13:06:00;5.83;;;4.67;;
50815;SDS011;39717;47.324;8.788;2023-04-06T13:08:27;7.60;;;5.43;;
50815;SDS011;39717;47.324;8.788;2023-04-06T13:10:53;5.77;;;4.73;;
50815;SDS011;39717;47.324;8.788;2023-04-06T13:13:22;5.20;;;4.63;;
50815;SDS011;39717;47.324;8.788;2023-04-06T13:15:48;6.40;;;5.07;;
50815;SDS011;39717;47.324;8.788;2023-04-06T13:18:15;9.97;;;5.03;;
50815;SDS011;39717;47.324;8.788;2023-04-06T13:20:41;6.70;;;5.20;;
50815;SDS011;39717;47.324;8.788;2023-04-06T13:23:07;6.80;;;4.90;;
50815;SDS011;39717;47.324;8.788;2023-04-06T13:25:34;6.43;;;4.80;;
50815;SDS011;39717;47.324;8.788;2023-04-06T13:28:00;7.70;;;5.20;;
50815;SDS011;39717;47.324;8.788;2023-04-06T13:30:26;5.33;;;4.47;;
50815;SDS011;39717;47.324;8.788;2023-04-06T13:32:53;7.93;;;4.90;;
50815;SDS011;39717;47.324;8.788;2023-04-06T13:35:19;6.47;;;4.83;;
50815;SDS011;39717;47.324;8.788;2023-04-06T13:37:46;7.97;;;5.07;;
50815;SDS011;39717;47.324;8.788;2023-04-06T13:40:13;5.97;;;4.93;;
50815;SDS011;39717;47.324;8.788;2023-04-06T13:42:39;6.23;;;4.77;;
50815;SDS011;39717;47.324;8.788;2023-04-06T13:45:07;6.43;;;5.00;;
50815;SDS011;39717;47.324;8.788;2023-04-06T13:47:33;8.53;;;5.47;;
50815;SDS011;39717;47.324;8.788;2023-04-06T13:50:00;6.63;;;4.40;;
50815;SDS011;39717;47.324;8.788;2023-04-06T13:52:26;6.73;;;4.87;;
50815;SDS011;39717;47.324;8.788;2023-04-06T13:54:52;5.93;;;4.57;;
50815;SDS011;39717;47.324;8.788;2023-04-06T13:57:18;5.87;;;4.60;;
50815;SDS011;39717;47.324;8.788;2023-04-06T13:59:44;6.23;;;4.40;;
50815;SDS011;39717;47.324;8.788;2023-04-06T14:02:10;6.33;;;4.67;;
50815;SDS011;39717;47.324;8.788;2023-04-06T14:04:37;5.87;;;4.10;;
50815;SDS011;39717;47.324;8.788;2023-04-06T14:07:03;6.30;;;4.13;;
50815;SDS011;39717;47.324;8.788;2023-04-06T14:09:32;5.07;;;4.00;;
50815;SDS011;39717;47.324;8.788;2023-04-06T14:11:58;7.17;;;4.50;;
50815;SDS011;39717;47.324;8.788;2023-04-06T14:14:25;6.77;;;4.43;;
50815;SDS011;39717;47.324;8.788;2023-04-06T14:16:51;5.33;;;4.37;;
50815;SDS011;39717;47.324;8.788;2023-04-06T14:19:18;4.23;;;3.80;;
50815;SDS011;39717;47.324;8.788;2023-04-06T14:21:44;5.47;;;3.90;;
50815;SDS011;39717;47.324;8.788;2023-04-06T14:24:11;5.43;;;3.50;;
50815;SDS011;39717;47.324;8.788;2023-04-06T14:26:39;3.23;;;2.80;;
50815;SDS011;39717;47.324;8.788;2023-04-06T14:29:06;5.70;;;2.90;;
50815;SDS011;39717;47.324;8.788;2023-04-06T14:31:33;4.00;;;3.07;;
50815;SDS011;39717;47.324;8.788;2023-04-06T14:34:01;3.93;;;3.13;;
50815;SDS011;39717;47.324;8.788;2023-04-06T14:36:28;4.53;;;3.20;;
50815;SDS011;39717;47.324;8.788;2023-04-06T14:38:56;3.17;;;2.87;;
50815;SDS011;39717;47.324;8.788;2023-04-06T14:41:23;6.17;;;3.30;;
50815;SDS011;39717;47.324;8.788;2023-04-06T14:43:52;4.13;;;2.47;;
50815;SDS011;39717;47.324;8.788;2023-04-06T14:46:18;3.80;;;3.20;;